sensor_id;sensor_type;location;lat;lon;timestamp;P1;durP1;ratioP1;P2;durP2;ratioP2
39776;SDS011;25453;48.162;14.510;2024-02-15T00:00:21;9.02;;;3.40;;
39776;SDS011;25453;48.162;14.510;2024-02-15T00:02:49;7.47;;;3.47;;
39776;SDS011;25453;48.162;14.510;2024-02-15T00:05:16;9.10;;;3.47;;
39776;SDS011;25453;48.162;14.510;2024-02-15T00:07:44;7.45;;;3.20;;
39776;SDS011;25453;48.162;14.510;2024-02-15T00:10:12;6.88;;;3.70;;
39776;SDS011;25453;48.162;14.510;2024-02-15T00:12:40;12.20;;;3.72;;
39776;SDS011;25453;48.162;14.510;2024-02-15T00:15:08;7.78;;;3.75;;
39776;SDS011;25453;48.162;14.510;2024-02-15T00:17:35;9.10;;;3.95;;
39776;SDS011;25453;48.162;14.510;2024-02-15T00:20:03;10.27;;;3.47;;
39776;SDS011;25453;48.162;14.510;2024-02-15T00:22:36;7.35;;;3.60;;
39776;SDS011;25453;48.162;14.510;2024-02-15T00:25:04;8.73;;;3.97;;
39776;SDS011;25453;48.162;14.510;2024-02-15T00:27:32;9.27;;;3.97;;
39776;SDS011;25453;48.162;14.510;2024-02-15T00:30:03;8.50;;;3.65;;
39776;SDS011;25453;48.162;14.510;2024-02-15T00:32:38;9.98;;;4.40;;
39776;SDS011;25453;48.162;14.510;2024-02-15T00:35:06;7.93;;;3.50;;
39776;SDS011;25453;48.162;14.510;2024-02-15T00:37:35;9.32;;;3.53;;
39776;SDS011;25453;48.162;14.510;2024-02-15T00:40:03;6.78;;;3.35;;
39776;SDS011;25453;48.162;14.510;2024-02-15T00:42:30;9.07;;;4.05;;
39776;SDS011;25453;48.162;14.510;2024-02-15T00:44:59;6.82;;;3.60;;
39776;SDS011;25453;48.162;14.510;2024-02-15T00:47:26;8.88;;;3.50;;
39776;SDS011;25453;48.162;14.510;2024-02-15T00:49:55;8.93;;;4.00;;
39776;SDS011;25453;48.162;14.510;2024-02-15T00:52:22;7.97;;;3.95;;
39776;SDS011;25453;48.162;14.510;2024-02-15T00:54:50;7.60;;;3.40;;
39776;SDS011;25453;48.162;14.510;2024-02-15T00:57:17;5.70;;;3.08;;
39776;SDS011;25453;48.162;14.510;2024-02-15T00:59:44;8.80;;;3.40;;
39776;SDS011;25453;48.162;14.510;2024-02-15T01:02:12;7.78;;;3.40;;
39776;SDS011;25453;48.162;14.510;2024-02-15T01:04:40;7.15;;;3.38;;
39776;SDS011;25453;48.162;14.510;2024-02-15T01:07:09;4.78;;;2.38;;
39776;SDS011;25453;48.162;14.510;2024-02-15T01:09:36;5.82;;;2.90;;
39776;SDS011;25453;48.162;14.510;2024-02-15T01:12:03;7.72;;;2.85;;
39776;SDS011;25453;48.162;14.510;2024-02-15T01:14:31;6.47;;;3.00;;
39776;SDS011;25453;48.162;14.510;2024-02-15T01:16:59;6.30;;;2.90;;
39776;SDS011;25453;48.162;14.510;2024-02-15T01:19:26;5.30;;;2.88;;
39776;SDS011;25453;48.162;14.510;2024-02-15T01:21:54;6.15;;;2.63;;
39776;SDS011;25453;48.162;14.510;2024-02-15T01:24:22;5.32;;;2.70;;
39776;SDS011;25453;48.162;14.510;2024-02-15T01:26:50;5.40;;;2.90;;
39776;SDS011;25453;48.162;14.510;2024-02-15T01:29:20;5.40;;;2.47;;
39776;SDS011;25453;48.162;14.510;2024-02-15T01:31:47;5.47;;;2.80;;
39776;SDS011;25453;48.162;14.510;2024-02-15T01:34:15;5.18;;;2.53;;
39776;SDS011;25453;48.162;14.510;2024-02-15T01:36:42;5.00;;;2.60;;
39776;SDS011;25453;48.162;14.510;2024-02-15T01:39:09;6.28;;;2.67;;
39776;SDS011;25453;48.162;14.510;2024-02-15T01:41:37;7.45;;;2.72;;
39776;SDS011;25453;48.162;14.510;2024-02-15T01:44:04;4.32;;;2.10;;
39776;SDS011;25453;48.162;14.510;2024-02-15T01:46:35;5.05;;;2.20;;
39776;SDS011;25453;48.162;14.510;2024-02-15T01:49:02;4.32;;;2.47;;
39776;SDS011;25453;48.162;14.510;2024-02-15T01:51:33;5.47;;;2.38;;
39776;SDS011;25453;48.162;14.510;2024-02-15T01:54:03;4.63;;;1.98;;
39776;SDS011;25453;48.162;14.510;2024-02-15T01:56:31;6.07;;;2.80;;
39776;SDS011;25453;48.162;14.510;2024-02-15T01:58:58;6.15;;;3.10;;
39776;SDS011;25453;48.162;14.510;2024-02-15T02:01:28;6.60;;;3.00;;
39776;SDS011;25453;48.162;14.510;2024-02-15T02:03:59;7.18;;;3.00;;
39776;SDS011;25453;48.162;14.510;2024-02-15T02:06:27;7.25;;;3.10;;
39776;SDS011;25453;48.162;14.510;2024-02-15T02:08:56;5.78;;;2.67;;
39776;SDS011;25453;48.162;14.510;2024-02-15T02:11:24;5.68;;;2.97;;
39776;SDS011;25453;48.162;14.510;2024-02-15T02:13:52;5.43;;;2.97;;
39776;SDS011;25453;48.162;14.510;2024-02-15T02:16:29;6.28;;;3.20;;
39776;SDS011;25453;48.162;14.510;2024-02-15T02:19:05;6.28;;;3.42;;
39776;SDS011;25453;48.162;14.510;2024-02-15T02:21:39;4.80;;;2.50;;
39776;SDS011;25453;48.162;14.510;2024-02-15T02:24:12;5.00;;;2.63;;
39776;SDS011;25453;48.162;14.510;2024-02-15T02:26:41;5.57;;;2.80;;
39776;SDS011;25453;48.162;14.510;2024-02-15T02:29:10;5.30;;;2.25;;
39776;SDS011;25453;48.162;14.510;2024-02-15T02:31:37;5.50;;;2.67;;
39776;SDS011;25453;48.162;14.510;2024-02-15T02:34:05;5.70;;;2.47;;
39776;SDS011;25453;48.162;14.510;2024-02-15T02:36:35;5.13;;;2.13;;
39776;SDS011;25453;48.162;14.510;2024-02-15T02:39:03;5.78;;;2.47;;
39776;SDS011;25453;48.162;14.510;2024-02-15T02:41:30;4.10;;;1.70;;
39776;SDS011;25453;48.162;14.510;2024-02-15T02:43:58;4.82;;;2.35;;
39776;SDS011;25453;48.162;14.510;2024-02-15T02:46:26;4.95;;;2.03;;
39776;SDS011;25453;48.162;14.510;2024-02-15T02:48:53;3.95;;;2.13;;
39776;SDS011;25453;48.162;14.510;2024-02-15T02:51:21;4.80;;;2.53;;
39776;SDS011;25453;48.162;14.510;2024-02-15T02:53:48;4.43;;;2.10;;
39776;SDS011;25453;48.162;14.510;2024-02-15T02:56:15;5.88;;;2.53;;
39776;SDS011;25453;48.162;14.510;2024-02-15T02:58:45;3.95;;;2.00;;
39776;SDS011;25453;48.162;14.510;2024-02-15T03:01:12;4.75;;;2.30;;
39776;SDS011;25453;48.162;14.510;2024-02-15T03:03:40;5.15;;;2.25;;
39776;SDS011;25453;48.162;14.510;2024-02-15T03:06:07;6.25;;;3.33;;
39776;SDS011;25453;48.162;14.510;2024-02-15T03:08:34;5.95;;;2.42;;
39776;SDS011;25453;48.162;14.510;2024-02-15T03:11:02;5.13;;;2.17;;
39776;SDS011;25453;48.162;14.510;2024-02-15T03:13:29;5.75;;;2.50;;
39776;SDS011;25453;48.162;14.510;2024-02-15T03:15:57;5.93;;;2.53;;
39776;SDS011;25453;48.162;14.510;2024-02-15T03:18:24;5.13;;;2.38;;
39776;SDS011;25453;48.162;14.510;2024-02-15T03:20:51;7.00;;;2.50;;
39776;SDS011;25453;48.162;14.510;2024-02-15T03:23:19;6.88;;;2.47;;
39776;SDS011;25453;48.162;14.510;2024-02-15T03:25:46;3.72;;;1.95;;
39776;SDS011;25453;48.162;14.510;2024-02-15T03:28:15;5.00;;;2.40;;
39776;SDS011;25453;48.162;14.510;2024-02-15T03:30:43;3.90;;;2.00;;
39776;SDS011;25453;48.162;14.510;2024-02-15T03:33:12;4.97;;;1.55;;
39776;SDS011;25453;48.162;14.510;2024-02-15T03:35:40;5.35;;;2.20;;
39776;SDS011;25453;48.162;14.510;2024-02-15T03:38:08;4.07;;;2.03;;
39776;SDS011;25453;48.162;14.510;2024-02-15T03:40:35;4.57;;;2.25;;
39776;SDS011;25453;48.162;14.510;2024-02-15T03:43:04;7.45;;;2.30;;
39776;SDS011;25453;48.162;14.510;2024-02-15T03:45:33;3.35;;;2.05;;
39776;SDS011;25453;48.162;14.510;2024-02-15T03:48:03;5.50;;;2.42;;
39776;SDS011;25453;48.162;14.510;2024-02-15T03:50:32;4.47;;;2.35;;
39776;SDS011;25453;48.162;14.510;2024-02-15T03:52:59;4.90;;;2.30;;
39776;SDS011;25453;48.162;14.510;2024-02-15T03:55:27;4.63;;;2.65;;
39776;SDS011;25453;48.162;14.510;2024-02-15T03:57:54;5.93;;;2.22;;
39776;SDS011;25453;48.162;14.510;2024-02-15T04:00:23;4.72;;;2.60;;
39776;SDS011;25453;48.162;14.510;2024-02-15T04:02:52;4.28;;;2.40;;
39776;SDS011;25453;48.162;14.510;2024-02-15T04:05:20;5.28;;;2.20;;
39776;SDS011;25453;48.162;14.510;2024-02-15T04:07:48;5.50;;;2.67;;
39776;SDS011;25453;48.162;14.510;2024-02-15T04:10:16;5.82;;;2.38;;
39776;SDS011;25453;48.162;14.510;2024-02-15T04:12:44;7.13;;;2.45;;
39776;SDS011;25453;48.162;14.510;2024-02-15T04:15:13;4.15;;;2.17;;
39776;SDS011;25453;48.162;14.510;2024-02-15T04:17:44;5.10;;;2.63;;
39776;SDS011;25453;48.162;14.510;2024-02-15T04:20:12;5.63;;;2.45;;
39776;SDS011;25453;48.162;14.510;2024-02-15T04:22:42;5.85;;;2.63;;
39776;SDS011;25453;48.162;14.510;2024-02-15T04:25:11;5.70;;;3.20;;
39776;SDS011;25453;48.162;14.510;2024-02-15T04:27:45;7.28;;;3.45;;
39776;SDS011;25453;48.162;14.510;2024-02-15T04:30:16;5.32;;;2.63;;
39776;SDS011;25453;48.162;14.510;2024-02-15T04:32:44;7.95;;;3.50;;
39776;SDS011;25453;48.162;14.510;2024-02-15T04:35:13;9.25;;;3.50;;
39776;SDS011;25453;48.162;14.510;2024-02-15T04:37:41;10.75;;;3.95;;
39776;SDS011;25453;48.162;14.510;2024-02-15T04:40:09;8.95;;;3.67;;
39776;SDS011;25453;48.162;14.510;2024-02-15T04:42:37;7.72;;;3.55;;
39776;SDS011;25453;48.162;14.510;2024-02-15T04:45:07;6.50;;;2.90;;
39776;SDS011;25453;48.162;14.510;2024-02-15T04:47:37;6.32;;;2.95;;
39776;SDS011;25453;48.162;14.510;2024-02-15T04:50:05;6.35;;;3.03;;
39776;SDS011;25453;48.162;14.510;2024-02-15T04:52:33;5.60;;;3.00;;
39776;SDS011;25453;48.162;14.510;2024-02-15T04:55:01;7.13;;;3.22;;
39776;SDS011;25453;48.162;14.510;2024-02-15T04:57:32;6.15;;;3.38;;
39776;SDS011;25453;48.162;14.510;2024-02-15T05:00:03;5.80;;;2.83;;
39776;SDS011;25453;48.162;14.510;2024-02-15T05:02:37;7.13;;;2.72;;
39776;SDS011;25453;48.162;14.510;2024-02-15T05:05:13;4.82;;;2.78;;
39776;SDS011;25453;48.162;14.510;2024-02-15T05:07:41;6.57;;;2.83;;
39776;SDS011;25453;48.162;14.510;2024-02-15T05:10:10;7.07;;;2.97;;
39776;SDS011;25453;48.162;14.510;2024-02-15T05:12:38;4.80;;;2.70;;
39776;SDS011;25453;48.162;14.510;2024-02-15T05:15:07;6.03;;;3.17;;
39776;SDS011;25453;48.162;14.510;2024-02-15T05:17:39;6.43;;;3.05;;
39776;SDS011;25453;48.162;14.510;2024-02-15T05:20:11;6.82;;;3.38;;
39776;SDS011;25453;48.162;14.510;2024-02-15T05:22:40;8.13;;;3.25;;
39776;SDS011;25453;48.162;14.510;2024-02-15T05:25:17;5.65;;;2.97;;
39776;SDS011;25453;48.162;14.510;2024-02-15T05:27:54;7.30;;;3.25;;
39776;SDS011;25453;48.162;14.510;2024-02-15T05:30:23;8.57;;;3.70;;
39776;SDS011;25453;48.162;14.510;2024-02-15T05:32:51;6.18;;;3.15;;
39776;SDS011;25453;48.162;14.510;2024-02-15T05:35:21;7.97;;;3.40;;
39776;SDS011;25453;48.162;14.510;2024-02-15T05:37:48;9.80;;;4.05;;
39776;SDS011;25453;48.162;14.510;2024-02-15T05:40:18;7.88;;;3.45;;
39776;SDS011;25453;48.162;14.510;2024-02-15T05:42:45;7.10;;;3.25;;
39776;SDS011;25453;48.162;14.510;2024-02-15T05:47:53;5.65;;;3.22;;
39776;SDS011;25453;48.162;14.510;2024-02-15T05:50:22;6.45;;;3.15;;
39776;SDS011;25453;48.162;14.510;2024-02-15T05:52:51;5.05;;;2.90;;
39776;SDS011;25453;48.162;14.510;2024-02-15T05:55:21;4.93;;;3.00;;
39776;SDS011;25453;48.162;14.510;2024-02-15T05:57:49;5.13;;;3.03;;
39776;SDS011;25453;48.162;14.510;2024-02-15T06:00:16;5.70;;;3.00;;
39776;SDS011;25453;48.162;14.510;2024-02-15T06:02:48;7.25;;;3.30;;
39776;SDS011;25453;48.162;14.510;2024-02-15T06:05:17;7.20;;;3.60;;
39776;SDS011;25453;48.162;14.510;2024-02-15T06:07:45;8.50;;;3.22;;
39776;SDS011;25453;48.162;14.510;2024-02-15T06:10:14;7.53;;;3.15;;
39776;SDS011;25453;48.162;14.510;2024-02-15T06:12:42;8.43;;;4.05;;
39776;SDS011;25453;48.162;14.510;2024-02-15T06:15:10;7.13;;;3.58;;
39776;SDS011;25453;48.162;14.510;2024-02-15T06:17:44;6.47;;;3.50;;
39776;SDS011;25453;48.162;14.510;2024-02-15T06:20:13;8.55;;;3.72;;
39776;SDS011;25453;48.162;14.510;2024-02-15T06:22:41;7.70;;;3.30;;
39776;SDS011;25453;48.162;14.510;2024-02-15T06:25:10;8.15;;;2.88;;
39776;SDS011;25453;48.162;14.510;2024-02-15T06:27:40;9.25;;;3.70;;
39776;SDS011;25453;48.162;14.510;2024-02-15T06:30:09;8.90;;;4.25;;
39776;SDS011;25453;48.162;14.510;2024-02-15T06:32:57;8.65;;;4.18;;
39776;SDS011;25453;48.162;14.510;2024-02-15T06:35:43;9.40;;;3.45;;
39776;SDS011;25453;48.162;14.510;2024-02-15T06:38:29;12.05;;;4.35;;
39776;SDS011;25453;48.162;14.510;2024-02-15T06:41:29;7.63;;;3.55;;
39776;SDS011;25453;48.162;14.510;2024-02-15T06:43:56;9.07;;;3.45;;
39776;SDS011;25453;48.162;14.510;2024-02-15T06:46:23;6.40;;;3.05;;
39776;SDS011;25453;48.162;14.510;2024-02-15T06:48:51;9.75;;;3.42;;
39776;SDS011;25453;48.162;14.510;2024-02-15T06:51:19;7.82;;;3.00;;
39776;SDS011;25453;48.162;14.510;2024-02-15T06:53:47;8.35;;;3.08;;
39776;SDS011;25453;48.162;14.510;2024-02-15T06:56:14;10.02;;;3.33;;
39776;SDS011;25453;48.162;14.510;2024-02-15T06:58:41;8.52;;;2.80;;
39776;SDS011;25453;48.162;14.510;2024-02-15T07:01:09;7.53;;;2.75;;
39776;SDS011;25453;48.162;14.510;2024-02-15T07:03:36;6.72;;;3.42;;
39776;SDS011;25453;48.162;14.510;2024-02-15T07:06:05;8.73;;;3.47;;
39776;SDS011;25453;48.162;14.510;2024-02-15T07:08:32;5.75;;;2.70;;
39776;SDS011;25453;48.162;14.510;2024-02-15T07:11:00;7.03;;;3.25;;
39776;SDS011;25453;48.162;14.510;2024-02-15T07:13:31;6.07;;;3.05;;
39776;SDS011;25453;48.162;14.510;2024-02-15T07:15:58;8.07;;;3.50;;
39776;SDS011;25453;48.162;14.510;2024-02-15T07:18:26;7.03;;;3.25;;
39776;SDS011;25453;48.162;14.510;2024-02-15T07:20:55;5.13;;;3.05;;
39776;SDS011;25453;48.162;14.510;2024-02-15T07:23:25;9.00;;;3.65;;
39776;SDS011;25453;48.162;14.510;2024-02-15T07:25:52;7.97;;;2.88;;
39776;SDS011;25453;48.162;14.510;2024-02-15T07:28:20;6.05;;;2.78;;
39776;SDS011;25453;48.162;14.510;2024-02-15T07:30:48;7.32;;;2.97;;
39776;SDS011;25453;48.162;14.510;2024-02-15T07:33:18;5.60;;;2.60;;
39776;SDS011;25453;48.162;14.510;2024-02-15T07:35:47;6.40;;;2.70;;
39776;SDS011;25453;48.162;14.510;2024-02-15T07:38:17;6.72;;;3.45;;
39776;SDS011;25453;48.162;14.510;2024-02-15T07:40:45;4.78;;;2.97;;
39776;SDS011;25453;48.162;14.510;2024-02-15T07:43:12;7.18;;;2.90;;
39776;SDS011;25453;48.162;14.510;2024-02-15T07:45:40;9.35;;;3.70;;
39776;SDS011;25453;48.162;14.510;2024-02-15T07:48:08;7.57;;;3.55;;
39776;SDS011;25453;48.162;14.510;2024-02-15T07:50:36;7.97;;;3.10;;
39776;SDS011;25453;48.162;14.510;2024-02-15T07:53:04;8.15;;;3.28;;
39776;SDS011;25453;48.162;14.510;2024-02-15T07:55:33;7.32;;;3.08;;
39776;SDS011;25453;48.162;14.510;2024-02-15T07:58:00;5.65;;;2.85;;
39776;SDS011;25453;48.162;14.510;2024-02-15T08:00:28;6.53;;;2.95;;
39776;SDS011;25453;48.162;14.510;2024-02-15T08:03:00;6.13;;;3.50;;
39776;SDS011;25453;48.162;14.510;2024-02-15T08:05:28;5.38;;;2.55;;
39776;SDS011;25453;48.162;14.510;2024-02-15T08:07:55;7.68;;;3.78;;
39776;SDS011;25453;48.162;14.510;2024-02-15T08:10:24;8.30;;;3.13;;
39776;SDS011;25453;48.162;14.510;2024-02-15T08:12:53;9.00;;;3.83;;
39776;SDS011;25453;48.162;14.510;2024-02-15T08:15:24;8.20;;;3.67;;
39776;SDS011;25453;48.162;14.510;2024-02-15T08:17:54;9.90;;;3.85;;
39776;SDS011;25453;48.162;14.510;2024-02-15T08:20:22;6.40;;;3.65;;
39776;SDS011;25453;48.162;14.510;2024-02-15T08:22:50;6.57;;;3.72;;
39776;SDS011;25453;48.162;14.510;2024-02-15T08:25:17;7.18;;;3.65;;
39776;SDS011;25453;48.162;14.510;2024-02-15T08:27:48;5.75;;;3.33;;
39776;SDS011;25453;48.162;14.510;2024-02-15T08:30:18;7.95;;;3.95;;
39776;SDS011;25453;48.162;14.510;2024-02-15T08:32:50;7.45;;;3.50;;
39776;SDS011;25453;48.162;14.510;2024-02-15T08:35:20;6.50;;;3.53;;
39776;SDS011;25453;48.162;14.510;2024-02-15T08:37:48;6.47;;;3.03;;
39776;SDS011;25453;48.162;14.510;2024-02-15T08:40:18;5.60;;;3.30;;
39776;SDS011;25453;48.162;14.510;2024-02-15T08:42:51;7.03;;;3.17;;
39776;SDS011;25453;48.162;14.510;2024-02-15T08:45:19;5.28;;;2.95;;
39776;SDS011;25453;48.162;14.510;2024-02-15T08:47:47;6.22;;;2.65;;
39776;SDS011;25453;48.162;14.510;2024-02-15T08:50:16;4.10;;;2.30;;
39776;SDS011;25453;48.162;14.510;2024-02-15T08:52:44;6.07;;;2.92;;
39776;SDS011;25453;48.162;14.510;2024-02-15T08:55:13;5.00;;;2.40;;
39776;SDS011;25453;48.162;14.510;2024-02-15T08:57:41;6.20;;;2.55;;
39776;SDS011;25453;48.162;14.510;2024-02-15T09:00:11;7.03;;;2.75;;
39776;SDS011;25453;48.162;14.510;2024-02-15T09:02:44;7.07;;;2.97;;
39776;SDS011;25453;48.162;14.510;2024-02-15T09:05:16;5.05;;;2.35;;
39776;SDS011;25453;48.162;14.510;2024-02-15T09:07:45;5.70;;;2.70;;
39776;SDS011;25453;48.162;14.510;2024-02-15T09:10:17;5.72;;;2.72;;
39776;SDS011;25453;48.162;14.510;2024-02-15T09:12:46;6.40;;;2.85;;
39776;SDS011;25453;48.162;14.510;2024-02-15T09:15:16;6.60;;;3.10;;
39776;SDS011;25453;48.162;14.510;2024-02-15T09:17:45;5.13;;;2.63;;
39776;SDS011;25453;48.162;14.510;2024-02-15T09:20:14;7.15;;;2.67;;
39776;SDS011;25453;48.162;14.510;2024-02-15T09:22:49;4.93;;;2.53;;
39776;SDS011;25453;48.162;14.510;2024-02-15T09:25:18;5.03;;;2.42;;
39776;SDS011;25453;48.162;14.510;2024-02-15T09:27:52;6.47;;;2.65;;
39776;SDS011;25453;48.162;14.510;2024-02-15T09:30:29;5.28;;;3.00;;
39776;SDS011;25453;48.162;14.510;2024-02-15T09:32:58;5.60;;;2.47;;
39776;SDS011;25453;48.162;14.510;2024-02-15T09:35:29;4.35;;;2.28;;
39776;SDS011;25453;48.162;14.510;2024-02-15T09:37:57;3.60;;;1.92;;
39776;SDS011;25453;48.162;14.510;2024-02-15T09:40:25;4.10;;;1.95;;
39776;SDS011;25453;48.162;14.510;2024-02-15T09:42:56;4.40;;;2.05;;
39776;SDS011;25453;48.162;14.510;2024-02-15T09:45:23;5.63;;;2.40;;
39776;SDS011;25453;48.162;14.510;2024-02-15T09:47:51;3.83;;;2.03;;
39776;SDS011;25453;48.162;14.510;2024-02-15T09:50:20;6.20;;;2.72;;
39776;SDS011;25453;48.162;14.510;2024-02-15T09:52:51;4.70;;;2.60;;
39776;SDS011;25453;48.162;14.510;2024-02-15T09:55:20;6.25;;;2.42;;
39776;SDS011;25453;48.162;14.510;2024-02-15T09:57:51;7.15;;;3.13;;
39776;SDS011;25453;48.162;14.510;2024-02-15T10:00:18;6.30;;;2.80;;
39776;SDS011;25453;48.162;14.510;2024-02-15T10:02:50;4.82;;;2.25;;
39776;SDS011;25453;48.162;14.510;2024-02-15T10:05:22;5.25;;;2.42;;
39776;SDS011;25453;48.162;14.510;2024-02-15T10:07:50;4.53;;;2.20;;
39776;SDS011;25453;48.162;14.510;2024-02-15T10:10:17;4.55;;;2.10;;
39776;SDS011;25453;48.162;14.510;2024-02-15T10:12:47;5.70;;;2.10;;
39776;SDS011;25453;48.162;14.510;2024-02-15T10:15:28;3.30;;;1.70;;
39776;SDS011;25453;48.162;14.510;2024-02-15T10:18:01;5.30;;;2.50;;
39776;SDS011;25453;48.162;14.510;2024-02-15T10:25:39;4.22;;;2.30;;
39776;SDS011;25453;48.162;14.510;2024-02-15T10:28:08;5.20;;;2.35;;
39776;SDS011;25453;48.162;14.510;2024-02-15T10:30:37;3.15;;;1.73;;
39776;SDS011;25453;48.162;14.510;2024-02-15T10:33:06;2.97;;;1.55;;
39776;SDS011;25453;48.162;14.510;2024-02-15T10:35:36;4.28;;;1.60;;
39776;SDS011;25453;48.162;14.510;2024-02-15T10:38:08;5.32;;;2.47;;
39776;SDS011;25453;48.162;14.510;2024-02-15T10:40:37;5.72;;;2.97;;
39776;SDS011;25453;48.162;14.510;2024-02-15T10:43:10;6.10;;;2.50;;
39776;SDS011;25453;48.162;14.510;2024-02-15T10:45:40;4.32;;;1.98;;
39776;SDS011;25453;48.162;14.510;2024-02-15T10:48:08;3.55;;;2.05;;
39776;SDS011;25453;48.162;14.510;2024-02-15T10:50:39;3.38;;;1.95;;
39776;SDS011;25453;48.162;14.510;2024-02-15T10:55:46;4.47;;;2.28;;
39776;SDS011;25453;48.162;14.510;2024-02-15T10:58:40;2.75;;;1.80;;
39776;SDS011;25453;48.162;14.510;2024-02-15T11:01:31;3.25;;;1.70;;
39776;SDS011;25453;48.162;14.510;2024-02-15T11:04:00;3.25;;;1.67;;
39776;SDS011;25453;48.162;14.510;2024-02-15T11:06:34;3.38;;;1.45;;
39776;SDS011;25453;48.162;14.510;2024-02-15T11:09:11;4.88;;;1.80;;
39776;SDS011;25453;48.162;14.510;2024-02-15T11:11:40;2.67;;;1.30;;
39776;SDS011;25453;48.162;14.510;2024-02-15T11:14:27;2.95;;;1.25;;
39776;SDS011;25453;48.162;14.510;2024-02-15T11:16:59;2.33;;;1.27;;
39776;SDS011;25453;48.162;14.510;2024-02-15T11:22:08;3.42;;;1.77;;
39776;SDS011;25453;48.162;14.510;2024-02-15T11:24:45;6.60;;;3.13;;
39776;SDS011;25453;48.162;14.510;2024-02-15T11:27:24;4.50;;;2.85;;
39776;SDS011;25453;48.162;14.510;2024-02-15T11:30:01;6.13;;;2.50;;
39776;SDS011;25453;48.162;14.510;2024-02-15T11:35:12;6.40;;;2.35;;
39776;SDS011;25453;48.162;14.510;2024-02-15T11:40:16;2.83;;;1.45;;
39776;SDS011;25453;48.162;14.510;2024-02-15T11:42:44;2.92;;;1.35;;
39776;SDS011;25453;48.162;14.510;2024-02-15T11:45:12;3.03;;;1.77;;
39776;SDS011;25453;48.162;14.510;2024-02-15T11:47:48;5.35;;;2.60;;
39776;SDS011;25453;48.162;14.510;2024-02-15T11:50:20;4.85;;;1.90;;
39776;SDS011;25453;48.162;14.510;2024-02-15T11:52:48;3.88;;;2.00;;
39776;SDS011;25453;48.162;14.510;2024-02-15T11:55:20;3.45;;;1.60;;
39776;SDS011;25453;48.162;14.510;2024-02-15T11:57:55;3.30;;;1.48;;
39776;SDS011;25453;48.162;14.510;2024-02-15T12:00:32;3.63;;;1.73;;
39776;SDS011;25453;48.162;14.510;2024-02-15T12:03:18;2.63;;;1.38;;
39776;SDS011;25453;48.162;14.510;2024-02-15T12:06:06;1.55;;;1.08;;
39776;SDS011;25453;48.162;14.510;2024-02-15T12:08:54;2.97;;;0.98;;
39776;SDS011;25453;48.162;14.510;2024-02-15T12:11:40;1.67;;;0.93;;
39776;SDS011;25453;48.162;14.510;2024-02-15T12:14:26;2.60;;;1.23;;
39776;SDS011;25453;48.162;14.510;2024-02-15T12:17:12;2.47;;;0.95;;
39776;SDS011;25453;48.162;14.510;2024-02-15T12:20:02;1.35;;;0.80;;
39776;SDS011;25453;48.162;14.510;2024-02-15T12:22:42;1.17;;;0.70;;
39776;SDS011;25453;48.162;14.510;2024-02-15T12:25:15;1.70;;;0.85;;
39776;SDS011;25453;48.162;14.510;2024-02-15T12:27:58;1.45;;;0.75;;
39776;SDS011;25453;48.162;14.510;2024-02-15T12:30:34;1.33;;;0.70;;
39776;SDS011;25453;48.162;14.510;2024-02-15T12:33:11;1.17;;;0.88;;
39776;SDS011;25453;48.162;14.510;2024-02-15T12:35:40;3.35;;;1.05;;
39776;SDS011;25453;48.162;14.510;2024-02-15T12:38:09;1.95;;;0.90;;
39776;SDS011;25453;48.162;14.510;2024-02-15T12:40:44;5.50;;;1.70;;
39776;SDS011;25453;48.162;14.510;2024-02-15T12:43:14;3.55;;;1.65;;
39776;SDS011;25453;48.162;14.510;2024-02-15T12:45:42;2.78;;;1.23;;
39776;SDS011;25453;48.162;14.510;2024-02-15T12:48:10;1.95;;;1.10;;
39776;SDS011;25453;48.162;14.510;2024-02-15T12:50:42;3.80;;;1.27;;
39776;SDS011;25453;48.162;14.510;2024-02-15T12:53:10;2.33;;;1.00;;
39776;SDS011;25453;48.162;14.510;2024-02-15T12:55:39;1.90;;;0.85;;
39776;SDS011;25453;48.162;14.510;2024-02-15T12:58:12;2.40;;;1.05;;
39776;SDS011;25453;48.162;14.510;2024-02-15T13:03:11;1.90;;;0.90;;
39776;SDS011;25453;48.162;14.510;2024-02-15T13:05:42;2.25;;;0.80;;
39776;SDS011;25453;48.162;14.510;2024-02-15T13:08:11;1.95;;;1.05;;
39776;SDS011;25453;48.162;14.510;2024-02-15T13:10:41;2.38;;;1.05;;
39776;SDS011;25453;48.162;14.510;2024-02-15T13:13:09;2.22;;;0.98;;
39776;SDS011;25453;48.162;14.510;2024-02-15T13:15:37;2.67;;;0.95;;
39776;SDS011;25453;48.162;14.510;2024-02-15T13:18:05;1.95;;;1.00;;
39776;SDS011;25453;48.162;14.510;2024-02-15T13:20:37;4.53;;;1.65;;
39776;SDS011;25453;48.162;14.510;2024-02-15T13:23:09;2.50;;;1.27;;
39776;SDS011;25453;48.162;14.510;2024-02-15T13:25:52;3.03;;;1.85;;
39776;SDS011;25453;48.162;14.510;2024-02-15T13:28:23;2.67;;;1.58;;
39776;SDS011;25453;48.162;14.510;2024-02-15T13:30:51;2.60;;;1.42;;
39776;SDS011;25453;48.162;14.510;2024-02-15T13:33:21;2.42;;;1.10;;
39776;SDS011;25453;48.162;14.510;2024-02-15T13:35:49;2.15;;;1.02;;
39776;SDS011;25453;48.162;14.510;2024-02-15T13:38:16;2.67;;;1.05;;
39776;SDS011;25453;48.162;14.510;2024-02-15T13:40:50;2.95;;;1.30;;
39776;SDS011;25453;48.162;14.510;2024-02-15T13:43:18;2.28;;;1.00;;
39776;SDS011;25453;48.162;14.510;2024-02-15T13:45:46;1.77;;;0.85;;
39776;SDS011;25453;48.162;14.510;2024-02-15T13:48:15;1.95;;;0.80;;
39776;SDS011;25453;48.162;14.510;2024-02-15T13:50:43;1.75;;;0.75;;
39776;SDS011;25453;48.162;14.510;2024-02-15T13:53:11;1.25;;;0.70;;
39776;SDS011;25453;48.162;14.510;2024-02-15T13:55:40;3.83;;;0.95;;
39776;SDS011;25453;48.162;14.510;2024-02-15T13:58:08;2.67;;;1.10;;
39776;SDS011;25453;48.162;14.510;2024-02-15T14:00:40;1.38;;;0.90;;
39776;SDS011;25453;48.162;14.510;2024-02-15T14:03:11;1.75;;;0.75;;
39776;SDS011;25453;48.162;14.510;2024-02-15T14:05:38;1.50;;;0.70;;
39776;SDS011;25453;48.162;14.510;2024-02-15T14:08:09;1.45;;;0.70;;
39776;SDS011;25453;48.162;14.510;2024-02-15T14:10:38;2.03;;;0.98;;
39776;SDS011;25453;48.162;14.510;2024-02-15T14:13:06;0.90;;;0.50;;
39776;SDS011;25453;48.162;14.510;2024-02-15T14:15:36;1.42;;;0.60;;
39776;SDS011;25453;48.162;14.510;2024-02-15T14:18:09;2.78;;;0.82;;
39776;SDS011;25453;48.162;14.510;2024-02-15T14:20:42;2.03;;;1.05;;
39776;SDS011;25453;48.162;14.510;2024-02-15T14:23:10;1.50;;;0.52;;
39776;SDS011;25453;48.162;14.510;2024-02-15T14:25:41;1.42;;;0.70;;
39776;SDS011;25453;48.162;14.510;2024-02-15T14:28:13;1.48;;;0.70;;
39776;SDS011;25453;48.162;14.510;2024-02-15T14:30:42;1.75;;;1.10;;
39776;SDS011;25453;48.162;14.510;2024-02-15T14:33:27;1.75;;;0.80;;
39776;SDS011;25453;48.162;14.510;2024-02-15T14:35:57;1.48;;;0.60;;
39776;SDS011;25453;48.162;14.510;2024-02-15T14:38:27;0.88;;;0.50;;
39776;SDS011;25453;48.162;14.510;2024-02-15T14:40:54;1.80;;;0.82;;
39776;SDS011;25453;48.162;14.510;2024-02-15T14:43:22;0.95;;;0.60;;
39776;SDS011;25453;48.162;14.510;2024-02-15T14:45:54;1.08;;;0.43;;
39776;SDS011;25453;48.162;14.510;2024-02-15T14:48:24;1.83;;;0.70;;
39776;SDS011;25453;48.162;14.510;2024-02-15T14:50:53;1.45;;;0.75;;
39776;SDS011;25453;48.162;14.510;2024-02-15T14:53:23;0.60;;;0.40;;
39776;SDS011;25453;48.162;14.510;2024-02-15T14:55:51;0.80;;;0.47;;
39776;SDS011;25453;48.162;14.510;2024-02-15T14:58:19;0.63;;;0.50;;
39776;SDS011;25453;48.162;14.510;2024-02-15T15:00:49;0.65;;;0.40;;
39776;SDS011;25453;48.162;14.510;2024-02-15T15:03:17;0.60;;;0.50;;
39776;SDS011;25453;48.162;14.510;2024-02-15T15:05:44;1.73;;;0.68;;
39776;SDS011;25453;48.162;14.510;2024-02-15T15:08:31;1.02;;;0.52;;
39776;SDS011;25453;48.162;14.510;2024-02-15T15:11:17;0.90;;;0.32;;